Terminal Aerodrome Forecast
Issued by NWS Charleston, WV

Current Version | Previous Version | Text Only | Print | Product List | Glossary Off
Versions: 1 2 3 4 5 6 7 8 9 10 11 12 13 14 15 16 17 18 19 20 21 22 23

889
FTUS41 KRLX 232056 AAA
TAFCRW
TAF AMD
KCRW 232056Z 2321/2418 06005KT P6SM VCSH OVC040
     FM240200 11004KT P6SM -RA OVC025
     FM240700 07005KT 6SM -RA OVC020=

USA.gov is the U.S. government's official web portal to all federal, state and local government web resources and services.